Nearby METAR Reports

 

KOXC - Oxford/Waterbury, Connecticut, USA
Distance from station: NW 7mi, 11km
Updated: 02/20/2018 11:51am
Overcast
Overcast
 Wind from WSW
Wind: WSW 8 mph , 13 km/h
Temperature: 54°F , 12°C
Dew Point: 52°F , 11°C
Humidity: 94%
Barometer: 30.29 inHg , 1025.7 hPa
Clouds: Overcast
Visibility: 10 miles , 16 km
Cloud details: Few Clouds 700 ft
Overcast 8000 ft
2018/02/20 16:51 KOXC 201651Z 24007KT 10SM FEW007 OVC080 12/11 A3029 RMK AO2 SLP271 T01220106
KHVN - New Haven/Tweed, Connecticut, USA
Distance from station: SE 13mi, 20km
Updated: 02/20/2018 11:53am
Overcast
Overcast
 Wind from SW
Wind: SW 9 mph , 15 km/h, Gust: 16 mph , 26 km/h
Temperature: 52°F , 11°C
Dew Point: 48°F , 9°C
Humidity: 88%
Barometer: 30.30 inHg , 1026.1 hPa
Clouds: Overcast
Visibility: 7 miles , 11 km
Cloud details: Overcast 900 ft
2018/02/20 16:53 KHVN 201653Z 23008G14KT 7SM OVC009 11/09 A3030 RMK AO2 SLP261 T01110094
 
KMMK - Meriden, Connecticut, USA
Distance from station: NE 13mi, 21km
Updated: 02/20/2018 11:53am
Overcast
Overcast
 Wind from varies
Wind: varies 7 mph , 11 km/h
Temperature: 55°F , 13°C
Dew Point: 52°F , 11°C
Humidity: 88%
Barometer: 30.28 inHg , 1025.4 hPa
Clouds: Overcast
Visibility: 10 miles , 16 km
Cloud details: Partly cloudy 1300 ft
Overcast 8500 ft
2018/02/20 16:53 KMMK 201653Z AUTO VRB06KT 10SM SCT013 OVC085 13/11 A3028 RMK AO2 SLP254 T01330106
KBDR - Bridgeport, Connecticut, USA
Distance from station: SSW 17mi, 27km
Updated: 02/20/2018 12:29pm
Mist, Partly cloudy
Mist, Partly cloudy
 Wind from SW
Wind: SW 13 mph , 20 km/h
Temperature: 52°F , 11°C
Dew Point: 48°F , 9°C
Humidity: 88%
Barometer: 30.29 inHg , 1025.7 hPa
Summary: Mist
Clouds: Partly cloudy
Visibility: 5 miles , 8 km
Cloud details: Few Clouds 200 ft
Partly cloudy 1100 ft
Partly cloudy 8500 ft
2018/02/20 17:29 KBDR 201729Z 23011KT 5SM BR FEW002 SCT011 SCT085 11/09 A3029 RMK AO2 T01060089
 
KDXR - Danbury, Connecticut, USA
Distance from station: W 23mi, 38km
Updated: 02/20/2018 11:53am
Partly cloudy
Partly cloudy
 Wind from SW
Wind: SW 6 mph , 9 km/h
Barometer: 30.30 inHg , 1026.1 hPa
Clouds: Partly cloudy
Visibility: 10 miles , 16 km
Cloud details: Partly cloudy 8000 ft
2018/02/20 16:53 KDXR 201653Z 23005KT 10SM SCT080 A3030 RMK AO2 SLPNO $